Time;durP1;ratioP1;P1;durP2;ratioP2;P2;SDS_P1;SDS_P2;PMS_P1;PMS_P2;Temp;Humidity;BMP_temperature;BMP_pressure;BME280_temperature;BME280_humidity;BME280_pressure;Samples;Min_cycle;Max_cycle;Signal;HPM_P1;HPM_P2
2022/06/20 00:01:49;;;;;;;4.90;2.45;;;;;;;23.88;41.25;99283.78;4329620;33;33752;-61
2022/06/20 00:04:18;;;;;;;3.72;2.20;;;;;;;23.77;41.27;99279.81;4319709;33;32649;-59
2022/06/20 00:06:50;;;;;;;3.92;1.95;;;;;;;23.58;41.62;99281.47;4304291;33;32646;-60
2022/06/20 00:09:18;;;;;;;5.18;2.42;;;;;;;23.50;41.97;99284.44;4317686;33;34121;-59
2022/06/20 00:11:48;;;;;;;5.93;2.28;;;;;;;23.54;41.95;99279.38;4331607;33;33801;-59
2022/06/20 00:14:18;;;;;;;6.15;2.75;;;;;;;23.07;43.24;99276.59;4332657;33;32521;-60
2022/06/20 00:16:47;;;;;;;5.10;2.35;;;;;;;23.32;42.69;99271.38;4322286;33;35007;-60
2022/06/20 00:19:15;;;;;;;8.95;2.37;;;;;;;23.35;42.85;99270.97;4332905;33;34189;-61
2022/06/20 00:21:43;;;;;;;4.93;2.60;;;;;;;23.43;42.56;99268.00;4320404;33;33630;-61
2022/06/20 00:24:11;;;;;;;4.22;2.30;;;;;;;23.43;42.52;99258.97;4319538;33;32255;-60
2022/06/20 00:26:38;;;;;;;4.28;2.30;;;;;;;23.43;42.88;99265.28;4329178;33;35299;-62
2022/06/20 00:29:07;;;;;;;4.70;2.58;;;;;;;23.39;42.66;99271.38;4324773;33;32492;-59
2022/06/20 00:31:35;;;;;;;4.40;2.55;;;;;;;23.46;42.31;99259.41;4326663;33;33610;-63
2022/06/20 00:34:03;;;;;;;5.80;2.55;;;;;;;23.37;42.58;99263.41;4320023;33;32313;-59
2022/06/20 00:36:31;;;;;;;5.82;2.17;;;;;;;23.52;41.95;99265.09;4319751;33;33950;-60
2022/06/20 00:38:58;;;;;;;5.70;2.60;;;;;;;23.50;42.00;99259.84;4331990;33;34307;-59
2022/06/20 00:41:29;;;;;;;7.75;2.62;;;;;;;23.37;42.05;99259.81;4305433;33;31915;-60
2022/06/20 00:43:57;;;;;;;4.90;2.83;;;;;;;23.25;42.22;99265.06;4323272;33;33110;-61
2022/06/20 00:46:51;;;;;;;5.85;2.90;;;;;;;22.92;42.97;99251.31;4320100;33;33158;-59
2022/06/20 00:50:02;;;;;;;5.30;2.72;;;;;;;22.94;42.89;99252.00;4324573;33;35223;-60
2022/06/20 00:52:57;;;;;;;5.72;2.35;;;;;;;23.00;42.28;99252.00;4319060;33;34788;-61
2022/06/20 00:55:50;;;;;;;5.53;2.60;;;;;;;22.94;42.64;99249.28;4322279;33;33135;-60
2022/06/20 00:58:46;;;;;;;3.58;2.28;;;;;;;22.92;42.59;99240.41;4321140;33;33898;-59
2022/06/20 01:01:37;;;;;;;6.62;2.80;;;;;;;22.83;42.85;99238.94;4319139;33;34178;-59
2022/06/20 01:04:42;;;;;;;5.30;2.58;;;;;;;22.85;42.81;99231.37;4319012;33;32384;-59
2022/06/20 01:07:50;;;;;;;6.62;2.90;;;;;;;23.00;42.51;99241.09;4308205;33;34853;-58
2022/06/20 01:10:47;;;;;;;4.85;2.60;;;;;;;23.06;42.57;99235.88;4317362;33;32908;-58
2022/06/20 01:13:33;;;;;;;8.30;3.15;;;;;;;22.98;42.77;99235.00;4319101;33;34864;-59
2022/06/20 01:16:31;;;;;;;7.57;3.03;;;;;;;22.81;43.09;99233.69;4319782;33;32203;-59
2022/06/20 01:19:44;;;;;;;4.55;2.90;;;;;;;22.86;42.91;99223.00;4332191;33;32498;-60
2022/06/20 01:22:50;;;;;;;5.53;2.87;;;;;;;22.87;42.78;99221.09;4318615;33;34020;-60
2022/06/20 01:26:01;;;;;;;4.00;2.28;;;;;;;22.73;43.16;99207.44;4322164;33;35822;-60
2022/06/20 01:28:49;;;;;;;7.97;2.97;;;;;;;22.81;43.52;99209.13;4319845;33;34967;-61
2022/06/20 01:31:44;;;;;;;4.18;2.25;;;;;;;22.83;43.60;99196.13;4307954;33;33843;-60
2022/06/20 01:34:31;;;;;;;5.60;2.97;;;;;;;22.89;43.41;99195.31;4318286;33;33936;-59
2022/06/20 01:37:23;;;;;;;5.68;2.90;;;;;;;23.04;43.08;99200.56;4315796;33;33973;-59
2022/06/20 01:40:13;;;;;;;7.65;2.95;;;;;;;22.88;42.99;99203.69;4322147;33;33750;-60
2022/06/20 01:42:59;;;;;;;4.43;2.35;;;;;;;22.98;42.84;99198.69;4322200;33;33994;-59
2022/06/20 01:45:58;;;;;;;4.30;2.50;;;;;;;23.06;42.51;99197.66;4324754;33;33837;-62
2022/06/20 01:48:51;;;;;;;5.32;2.25;;;;;;;22.97;42.84;99197.00;4330648;33;32752;-59
2022/06/20 01:51:47;;;;;;;5.57;2.87;;;;;;;22.97;42.99;99191.56;4310622;33;33428;-59
2022/06/20 01:54:38;;;;;;;4.87;2.47;;;;;;;23.02;43.10;99200.81;4317529;33;32388;-59
2022/06/20 01:57:27;;;;;;;8.02;3.42;;;;;;;23.10;42.93;99199.75;4319891;33;32518;-59
2022/06/20 02:00:16;;;;;;;6.15;2.80;;;;;;;22.92;43.47;99200.34;4309294;33;32870;-61
2022/06/20 02:03:05;;;;;;;5.18;3.08;;;;;;;22.92;43.52;99188.56;4312714;33;33323;-59
2022/06/20 02:05:54;;;;;;;5.87;2.60;;;;;;;22.90;43.35;99194.25;4330779;33;32705;-59
2022/06/20 02:08:41;;;;;;;5.28;2.62;;;;;;;22.99;42.80;99182.12;4320430;33;34130;-59
2022/06/20 02:11:34;;;;;;;6.50;2.78;;;;;;;22.83;43.32;99173.47;4318234;33;34183;-61
2022/06/20 02:14:24;;;;;;;5.20;2.80;;;;;;;22.72;43.81;99156.63;4318400;33;33421;-61
2022/06/20 02:17:19;;;;;;;4.37;2.72;;;;;;;22.71;43.75;99163.16;4326240;33;34067;-63
2022/06/20 02:20:12;;;;;;;6.03;3.20;;;;;;;22.82;43.57;99163.56;4321263;33;35288;-62
2022/06/20 02:22:59;;;;;;;5.37;3.08;;;;;;;22.87;43.64;99161.91;4320412;33;35542;-61
2022/06/20 02:25:47;;;;;;;6.15;3.05;;;;;;;22.63;44.16;99157.91;4325998;33;33668;-58
2022/06/20 02:28:47;;;;;;;5.75;3.00;;;;;;;22.71;44.24;99160.41;4309025;33;33953;-61
2022/06/20 02:31:34;;;;;;;4.85;3.08;;;;;;;22.82;44.12;99156.22;4297362;33;33787;-59
2022/06/20 02:34:26;;;;;;;6.53;3.28;;;;;;;22.74;44.30;99157.28;4318834;33;34076;-58
2022/06/20 02:37:15;;;;;;;5.20;2.95;;;;;;;22.83;44.12;99151.62;4308536;33;33051;-58
2022/06/20 02:40:07;;;;;;;5.43;3.40;;;;;;;22.68;44.44;99144.47;4329667;33;34064;-61
2022/06/20 02:43:03;;;;;;;6.87;3.10;;;;;;;22.75;44.34;99149.94;4328998;33;33961;-58
2022/06/20 02:45:52;;;;;;;5.57;3.28;;;;;;;22.69;44.65;99148.03;4317075;33;33879;-58
2022/06/20 02:48:42;;;;;;;5.82;3.40;;;;;;;22.81;44.37;99148.25;4322207;33;32427;-60
2022/06/20 02:51:33;;;;;;;5.95;3.55;;;;;;;22.68;44.96;99152.66;4315081;33;33662;-58
2022/06/20 02:54:27;;;;;;;5.97;3.10;;;;;;;22.60;45.08;99152.00;4321539;33;33850;-58
2022/06/20 02:57:17;;;;;;;5.55;3.05;;;;;;;22.54;44.81;99154.53;4308498;33;33093;-57
2022/06/20 03:00:13;;;;;;;6.28;3.10;;;;;;;22.51;44.45;99151.38;4311568;33;35032;-62
2022/06/20 03:03:03;;;;;;;7.28;3.60;;;;;;;22.55;44.00;99145.28;4332640;33;34081;-59
2022/06/20 03:05:50;;;;;;;6.32;3.40;;;;;;;22.27;44.61;99150.88;4320703;33;32599;-59
2022/06/20 03:08:36;;;;;;;5.32;3.10;;;;;;;22.01;45.48;99145.28;4325225;33;34176;-59
2022/06/20 03:11:23;;;;;;;6.20;3.37;;;;;;;22.09;45.37;99139.69;4320544;33;33746;-62
2022/06/20 03:14:15;;;;;;;10.25;3.58;;;;;;;22.24;45.08;99143.09;4326930;33;33907;-59
2022/06/20 03:17:01;;;;;;;5.75;3.12;;;;;;;22.15;45.48;99135.28;4327947;33;33645;-61
2022/06/20 03:19:50;;;;;;;7.35;3.28;;;;;;;22.17;45.46;99142.25;4320547;33;34881;-59
2022/06/20 03:22:43;;;;;;;4.78;3.25;;;;;;;22.24;45.73;99136.81;4307475;33;33690;-59
2022/06/20 03:25:30;;;;;;;6.82;3.35;;;;;;;21.96;46.97;99143.19;4308655;33;33785;-59
2022/06/20 03:28:19;;;;;;;5.68;3.65;;;;;;;22.30;46.77;99142.28;4314989;33;33088;-62
2022/06/20 03:31:20;;;;;;;6.90;3.42;;;;;;;22.63;45.99;99140.69;4311749;33;35103;-60
2022/06/20 03:34:07;;;;;;;7.55;3.75;;;;;;;22.83;45.38;99144.28;4331401;33;33357;-60
2022/06/20 03:36:54;;;;;;;8.45;4.10;;;;;;;22.96;44.81;99138.88;4328477;33;32653;-60
2022/06/20 03:39:41;;;;;;;7.07;3.85;;;;;;;23.07;44.50;99128.38;4313565;33;32582;-63
2022/06/20 03:42:27;;;;;;;7.00;3.42;;;;;;;23.21;44.27;99132.75;4332236;33;35475;-60
2022/06/20 03:45:14;;;;;;;6.07;3.58;;;;;;;23.27;44.70;99140.09;4320133;33;31665;-61
2022/06/20 03:48:21;;;;;;;6.10;3.47;;;;;;;23.27;45.19;99137.38;4316123;33;34094;-60
2022/06/20 03:51:19;;;;;;;5.75;3.20;;;;;;;23.27;45.21;99131.91;4325247;33;33350;-61
2022/06/20 03:54:09;;;;;;;5.93;3.42;;;;;;;23.56;43.91;99129.75;4311868;33;34204;-63
2022/06/20 03:57:08;;;;;;;9.25;3.37;;;;;;;23.66;43.36;99135.66;4312676;33;33930;-60
2022/06/20 04:00:00;;;;;;;6.78;3.50;;;;;;;23.63;43.32;99130.59;4319476;33;33869;-61
2022/06/20 04:02:54;;;;;;;7.55;3.75;;;;;;;23.63;43.14;99133.34;4330660;33;35330;-65
2022/06/20 04:05:52;;;;;;;8.25;3.72;;;;;;;23.63;43.11;99136.91;4314467;33;33712;-63
2022/06/20 04:12:06;;;;;;;6.60;3.25;;;;;;;23.63;43.83;99134.19;4331384;33;34760;-62
2022/06/20 04:15:07;;;;;;;6.80;3.45;;;;;;;23.69;44.04;99135.22;4328916;33;34047;-61
2022/06/20 04:21:25;;;;;;;6.68;3.47;;;;;;;23.88;44.53;99139.81;4310541;33;33644;-60
2022/06/20 04:24:23;;;;;;;9.77;4.05;;;;;;;24.00;44.38;99136.38;4309266;33;34501;-62
2022/06/20 04:27:36;;;;;;;8.68;4.20;;;;;;;24.19;43.59;99143.66;4305707;33;35051;-61
2022/06/20 04:30:43;;;;;;;8.43;3.60;;;;;;;24.26;43.52;99132.69;4318339;33;34341;-63
2022/06/20 04:33:47;;;;;;;7.75;3.47;;;;;;;24.43;43.47;99135.78;4299176;33;32199;-62
2022/06/20 04:36:51;;;;;;;9.45;4.47;;;;;;;24.52;43.79;99139.94;4323855;33;34960;-61
2022/06/20 04:39:57;;;;;;;6.70;3.78;;;;;;;24.62;44.11;99126.63;4316923;33;33833;-62
2022/06/20 04:42:51;;;;;;;5.93;3.53;;;;;;;24.79;44.00;99127.78;4306541;33;34956;-63
2022/06/20 04:45:56;;;;;;;6.50;3.80;;;;;;;24.80;43.76;99128.59;4320469;33;34086;-60
2022/06/20 04:48:45;;;;;;;8.80;4.05;;;;;;;24.83;44.32;99126.25;4314086;33;34097;-60
2022/06/20 04:51:35;;;;;;;8.00;3.85;;;;;;;25.13;43.81;99130.25;4319318;33;35053;-62
2022/06/20 04:54:21;;;;;;;6.57;3.08;;;;;;;25.38;42.82;99125.59;4317471;33;35009;-60
2022/06/20 04:57:10;;;;;;;6.07;3.78;;;;;;;25.51;42.45;99128.19;4319878;33;33761;-61
2022/06/20 04:59:59;;;;;;;10.38;3.95;;;;;;;25.62;42.54;99123.03;4320934;33;33739;-60
2022/06/20 05:02:47;;;;;;;6.62;3.65;;;;;;;25.68;42.39;99130.34;4319105;33;35283;-64
2022/06/20 05:05:36;;;;;;;6.57;4.07;;;;;;;25.74;42.62;99129.44;4318235;33;34070;-63
2022/06/20 05:08:46;;;;;;;8.13;4.25;;;;;;;25.16;42.70;99127.06;4318505;33;34587;-64
2022/06/20 05:11:36;;;;;;;7.90;3.92;;;;;;;25.74;42.10;99133.00;4320383;33;34115;-63
2022/06/20 05:14:29;;;;;;;7.28;4.07;;;;;;;25.46;42.34;99135.44;4323411;33;35361;-62
2022/06/20 05:17:22;;;;;;;;;;;;;;;25.63;42.40;99133.78;4328931;33;32860;-63
2022/06/20 05:20:20;;;;;;;8.25;4.10;;;;;;;25.66;42.17;99133.31;4325909;33;33564;-62
2022/06/20 05:23:21;;;;;;;7.45;4.45;;;;;;;25.90;42.94;99144.47;4307991;33;34772;-60
2022/06/20 05:26:09;;;;;;;6.85;4.55;;;;;;;25.65;41.83;99141.75;4316929;33;35277;-60
2022/06/20 05:28:58;;;;;;;9.57;4.40;;;;;;;25.51;42.49;99136.41;4324608;33;34304;-64
2022/06/20 05:31:45;;;;;;;7.75;4.35;;;;;;;25.26;43.00;99136.44;4313550;33;34501;-61
2022/06/20 05:34:54;;;;;;;7.32;4.43;;;;;;;24.81;44.48;99139.31;4308037;33;35008;-60
2022/06/20 05:37:40;;;;;;;8.68;4.43;;;;;;;25.18;43.68;99139.50;4316741;33;34029;-60
2022/06/20 05:40:08;;;;;;;8.52;4.28;;;;;;;24.85;45.04;99148.78;4323572;33;33879;-61
2022/06/20 05:42:36;;;;;;;9.65;4.47;;;;;;;25.40;44.33;99144.56;4331475;33;33726;-63
2022/06/20 05:45:19;;;;;;;8.40;4.40;;;;;;;25.51;44.73;99149.28;4330721;33;35012;-60
2022/06/20 05:47:53;;;;;;;8.85;4.60;;;;;;;25.78;43.91;99139.72;4324175;33;32960;-63
2022/06/20 05:50:59;;;;;;;10.63;4.03;;;;;;;26.05;43.05;99149.56;4305000;33;33790;-60
2022/06/20 05:53:54;;;;;;;8.23;4.50;;;;;;;26.18;42.28;99142.00;4321209;33;33401;-60
2022/06/20 05:56:29;;;;;;;10.85;4.22;;;;;;;26.28;43.31;99146.13;4324694;33;34873;-59
2022/06/20 05:58:58;;;;;;;8.85;4.05;;;;;;;26.43;42.71;99152.03;4308106;33;32735;-60
2022/06/20 06:01:32;;;;;;;9.63;4.62;;;;;;;26.51;42.36;99164.63;4330857;33;32865;-60
2022/06/20 06:04:35;;;;;;;8.05;4.35;;;;;;;26.62;41.35;99156.44;4323452;33;33639;-59
2022/06/20 06:07:10;;;;;;;8.40;4.15;;;;;;;26.82;41.24;99158.88;4273434;33;34673;-63
2022/06/20 06:09:38;;;;;;;;;;;;;;;26.19;41.42;99162.03;4317206;33;33911;-60
2022/06/20 06:12:08;;;;;;;6.90;4.10;;;;;;;26.73;39.96;99159.44;4316159;33;34422;-59
2022/06/20 06:14:46;;;;;;;7.65;3.97;;;;;;;27.00;40.41;99152.50;4315998;33;33740;-59
2022/06/20 06:17:22;;;;;;;6.68;3.70;;;;;;;27.04;40.26;99150.94;4330201;33;33904;-61
2022/06/20 06:20:17;;;;;;;7.75;3.60;;;;;;;26.87;39.76;99150.78;4311884;33;35142;-63
2022/06/20 06:22:47;;;;;;;8.10;3.85;;;;;;;27.17;41.09;99148.00;4316064;33;33991;-60
2022/06/20 06:25:21;;;;;;;6.28;3.45;;;;;;;27.38;39.00;99138.34;4329673;33;33691;-59
2022/06/20 06:27:53;;;;;;;6.43;3.55;;;;;;;26.88;38.94;99141.47;4321722;33;33940;-63
2022/06/20 06:30:27;;;;;;;9.60;3.65;;;;;;;27.62;38.67;99133.66;4326758;33;32889;-63
2022/06/20 06:33:04;;;;;;;7.53;3.90;;;;;;;27.81;37.78;99137.13;4306825;33;32814;-60
2022/06/20 06:35:43;;;;;;;7.72;3.55;;;;;;;27.79;37.32;99135.69;4305096;33;32302;-62
2022/06/20 06:38:26;;;;;;;7.53;3.40;;;;;;;27.94;37.05;99135.19;4326470;33;33258;-62
2022/06/20 06:40:56;;;;;;;5.97;3.40;;;;;;;27.75;37.43;99131.75;4315703;33;32810;-62
2022/06/20 06:43:30;;;;;;;7.65;3.50;;;;;;;27.51;37.75;99139.16;4324355;33;34017;-60
2022/06/20 06:46:01;;;;;;;6.15;3.50;;;;;;;27.92;36.22;99134.59;4315513;33;33378;-61
2022/06/20 06:48:45;;;;;;;8.35;3.55;;;;;;;27.95;36.78;99136.88;4324226;33;33650;-62
2022/06/20 06:51:16;;;;;;;6.43;3.62;;;;;;;28.30;35.84;99134.84;4309364;33;33989;-60
2022/06/20 06:53:48;;;;;;;6.18;3.03;;;;;;;28.33;34.84;99141.78;4317153;33;34021;-62
2022/06/20 06:56:22;;;;;;;8.75;3.47;;;;;;;28.27;36.22;99135.31;4309726;33;33350;-59
2022/06/20 06:59:14;;;;;;;7.70;3.63;;;;;;;28.43;35.65;99132.91;4325747;33;33891;-62
2022/06/20 07:01:48;;;;;;;6.32;3.92;;;;;;;28.46;35.53;99124.16;4295225;33;32526;-59
2022/06/20 07:04:30;;;;;;;6.10;3.55;;;;;;;28.36;36.14;99127.53;4304444;33;34025;-63
2022/06/20 07:07:18;;;;;;;8.02;4.37;;;;;;;28.22;36.28;99117.87;4302113;33;33169;-59
2022/06/20 07:09:49;;;;;;;8.95;3.80;;;;;;;27.88;36.46;99115.00;4318251;33;33691;-63
2022/06/20 07:12:26;;;;;;;7.22;3.90;;;;;;;28.31;35.70;99111.78;4313741;33;35019;-59
2022/06/20 07:15:01;;;;;;;5.50;3.45;;;;;;;27.86;35.88;99111.66;4306736;33;34170;-61
2022/06/20 07:17:34;;;;;;;9.48;4.10;;;;;;;28.42;35.64;99103.72;4329781;33;33297;-60
2022/06/20 07:20:03;;;;;;;6.53;3.80;;;;;;;28.66;36.83;99098.91;4311251;33;33762;-60
2022/06/20 07:22:36;;;;;;;7.12;4.03;;;;;;;28.33;37.65;99106.84;4314094;33;33152;-60
2022/06/20 07:25:04;;;;;;;6.30;3.92;;;;;;;28.55;35.44;99104.25;4314989;33;32641;-60
2022/06/20 07:27:40;;;;;;;7.40;4.12;;;;;;;28.55;36.26;99098.75;4322135;33;32486;-62
2022/06/20 07:30:20;;;;;;;9.68;4.28;;;;;;;28.53;37.32;99105.56;4327841;33;34047;-60
2022/06/20 07:32:52;;;;;;;7.15;4.00;;;;;;;28.21;37.37;99097.78;4316742;33;33982;-59
2022/06/20 07:35:31;;;;;;;6.85;3.87;;;;;;;28.82;36.74;99091.75;4317366;33;34222;-59
2022/06/20 07:38:06;;;;;;;6.68;3.80;;;;;;;28.77;36.87;99090.59;4328830;33;33334;-61
2022/06/20 07:40:43;;;;;;;7.62;4.15;;;;;;;28.78;37.09;99088.69;4316701;33;34930;-58
2022/06/20 07:43:20;;;;;;;8.35;4.25;;;;;;;28.56;36.93;99085.81;4320146;33;36794;-61
2022/06/20 07:45:51;;;;;;;9.30;4.28;;;;;;;28.71;36.47;99069.56;4317523;33;34170;-63
2022/06/20 07:48:25;;;;;;;7.70;4.22;;;;;;;28.93;37.13;99075.16;4322003;33;32730;-62
2022/06/20 07:50:57;;;;;;;;;;;;;;;28.93;37.39;99079.84;4323044;33;33890;-63
2022/06/20 07:53:30;;;;;;;9.48;4.32;;;;;;;28.51;38.08;99083.00;4308047;33;34077;-60
2022/06/20 07:56:03;;;;;;;8.55;4.68;;;;;;;28.54;37.28;99086.06;4315504;33;34014;-60
2022/06/20 07:58:33;;;;;;;9.73;4.60;;;;;;;28.32;37.57;99076.81;4309157;33;34713;-60
2022/06/20 08:01:05;;;;;;;8.77;5.05;;;;;;;28.51;37.64;99089.31;4309296;33;33811;-62
2022/06/20 08:04:03;;;;;;;7.15;3.92;;;;;;;28.77;37.78;99081.50;4306078;33;32538;-60
2022/06/20 08:06:45;;;;;;;9.68;4.32;;;;;;;29.06;37.22;99081.47;4305692;33;34084;-59
2022/06/20 08:09:33;;;;;;;7.72;4.62;;;;;;;28.60;38.44;99073.22;4314112;33;34312;-60
2022/06/20 08:12:21;;;;;;;10.25;4.47;;;;;;;28.59;38.80;99076.22;4320748;33;32427;-60
2022/06/20 08:15:14;;;;;;;10.82;4.30;;;;;;;28.90;37.72;99067.41;4327870;33;32779;-61
2022/06/20 08:17:42;;;;;;;6.37;3.97;;;;;;;28.99;38.28;99074.16;4315990;33;32719;-60
2022/06/20 08:20:10;;;;;;;7.65;4.80;;;;;;;29.07;36.71;99067.41;4326148;33;33741;-60
2022/06/20 08:22:47;;;;;;;8.20;4.30;;;;;;;29.01;37.74;99061.00;4315046;33;33172;-60
2022/06/20 08:25:21;;;;;;;9.88;5.03;;;;;;;29.14;37.51;99068.06;4316901;33;33743;-60
2022/06/20 08:27:56;;;;;;;6.70;4.00;;;;;;;28.97;37.82;99059.81;4292271;33;33650;-60
2022/06/20 08:30:31;;;;;;;6.60;4.47;;;;;;;29.38;36.12;99057.69;4325943;33;32454;-62
2022/06/20 08:33:11;;;;;;;7.37;4.78;;;;;;;29.25;36.85;99053.38;4318266;33;32640;-61
2022/06/20 08:35:47;;;;;;;9.35;4.37;;;;;;;29.29;37.08;99064.72;4294486;33;33653;-63
2022/06/20 08:38:18;;;;;;;6.12;3.95;;;;;;;29.94;35.88;99058.44;4321605;33;33014;-62
2022/06/20 08:41:00;;;;;;;6.80;3.72;;;;;;;29.14;36.35;99058.97;4327326;33;32893;-61
2022/06/20 08:43:59;;;;;;;7.57;3.97;;;;;;;29.61;36.57;99055.81;4303395;33;33510;-61
2022/06/20 08:47:08;;;;;;;7.50;3.90;;;;;;;29.85;35.97;99053.63;4317078;33;33742;-62
2022/06/20 08:50:08;;;;;;;9.48;4.60;;;;;;;29.81;36.24;99056.06;4324181;33;35183;-59
2022/06/20 08:53:22;;;;;;;9.77;4.18;;;;;;;29.77;36.19;99054.09;4321809;33;32433;-61
2022/06/20 08:56:06;;;;;;;9.20;4.97;;;;;;;29.76;35.39;99053.28;4316388;33;33969;-59
2022/06/20 08:59:05;;;;;;;7.62;4.18;;;;;;;30.09;34.86;99048.69;4319199;33;34272;-60
2022/06/20 09:01:43;;;;;;;6.57;4.43;;;;;;;29.89;35.07;99052.03;4305906;33;33938;-60
2022/06/20 09:04:21;;;;;;;8.35;4.20;;;;;;;30.01;35.20;99040.84;4321003;33;34718;-64
2022/06/20 09:06:52;;;;;;;5.43;3.80;;;;;;;29.75;34.35;99048.00;4311749;33;34988;-63
2022/06/20 09:09:35;;;;;;;8.05;4.43;;;;;;;30.57;33.23;99035.94;4320791;33;33696;-60
2022/06/20 09:12:16;;;;;;;7.22;4.45;;;;;;;30.27;34.28;99030.94;4328939;33;32705;-61
2022/06/20 09:14:57;;;;;;;7.15;4.30;;;;;;;30.44;35.04;99036.38;4328248;33;32102;-63
2022/06/20 09:17:49;;;;;;;7.47;4.03;;;;;;;31.18;32.12;99024.56;4316837;33;34155;-62
2022/06/20 09:20:35;;;;;;;6.32;4.00;;;;;;;31.12;33.32;99023.69;4321063;33;32867;-62
2022/06/20 09:23:08;;;;;;;8.80;4.22;;;;;;;30.93;33.11;99016.91;4322637;33;33969;-62
2022/06/20 09:25:51;;;;;;;6.28;3.65;;;;;;;31.34;32.28;99006.16;4314441;33;34436;-60
2022/06/20 09:28:22;;;;;;;7.28;3.60;;;;;;;31.21;32.75;99005.50;4306465;33;34725;-62
2022/06/20 09:31:08;;;;;;;6.00;3.65;;;;;;;30.79;32.29;99011.84;4316638;33;34702;-61
2022/06/20 09:33:39;;;;;;;7.60;3.97;;;;;;;31.07;31.82;98996.00;4333960;33;34242;-61
2022/06/20 09:36:10;;;;;;;6.68;3.85;;;;;;;31.66;31.67;98987.50;4334918;33;33623;-64
2022/06/20 09:38:50;;;;;;;6.50;3.65;;;;;;;30.96;31.50;98983.22;4324426;33;33083;-61
2022/06/20 09:41:29;;;;;;;5.10;3.60;;;;;;;31.50;31.50;98983.00;4320137;33;35247;-62
2022/06/20 09:44:15;;;;;;;5.85;3.37;;;;;;;31.79;30.43;98975.06;4322078;33;34643;-61
2022/06/20 09:47:06;;;;;;;6.50;3.75;;;;;;;31.58;31.53;98987.16;4320574;33;33234;-62
2022/06/20 09:49:51;;;;;;;5.05;3.58;;;;;;;31.53;29.70;98985.22;4317346;33;33556;-61
2022/06/20 09:52:39;;;;;;;6.80;3.65;;;;;;;31.59;29.99;98980.53;4328499;33;33863;-61
2022/06/20 09:55:17;;;;;;;6.60;3.92;;;;;;;31.90;30.42;98973.19;4310586;33;34164;-61
2022/06/20 09:57:56;;;;;;;9.63;4.05;;;;;;;31.86;29.52;98970.09;4301113;33;32025;-64
2022/06/20 10:00:47;;;;;;;7.85;3.95;;;;;;;31.90;30.23;98974.00;4316073;33;32678;-63
2022/06/20 10:03:40;;;;;;;4.80;3.17;;;;;;;32.46;29.59;98963.06;4312791;33;34747;-61
2022/06/20 10:06:17;;;;;;;5.28;3.60;;;;;;;32.47;29.58;98966.66;4295600;33;33416;-61
2022/06/20 10:08:53;;;;;;;5.97;3.70;;;;;;;33.02;28.39;98956.63;4326630;33;33516;-63
2022/06/20 10:11:39;;;;;;;5.37;3.60;;;;;;;32.97;28.53;98953.03;4305201;33;33456;-60
2022/06/20 10:14:18;;;;;;;5.57;3.70;;;;;;;32.56;28.27;98955.84;4315597;33;34077;-63
2022/06/20 10:16:52;;;;;;;6.10;3.45;;;;;;;31.92;29.83;98957.97;4321413;33;34342;-63
2022/06/20 10:19:30;;;;;;;7.78;4.32;;;;;;;32.61;29.13;98950.28;4317251;33;33692;-62
2022/06/20 10:22:11;;;;;;;7.68;4.18;;;;;;;32.68;30.26;98942.53;4295548;33;32462;-62
2022/06/20 10:25:06;;;;;;;5.62;3.85;;;;;;;33.13;29.78;98952.72;4322230;33;35022;-65
2022/06/20 10:28:17;;;;;;;6.90;3.95;;;;;;;33.00;28.62;98950.53;4304855;33;34015;-61
2022/06/20 10:31:02;;;;;;;5.25;3.35;;;;;;;32.91;27.61;98944.72;4302111;33;32922;-63
2022/06/20 10:34:03;;;;;;;4.95;3.42;;;;;;;33.18;28.30;98940.78;4303514;33;32494;-60
2022/06/20 10:36:49;;;;;;;5.50;3.70;;;;;;;32.99;27.64;98943.34;4303505;33;32913;-62
2022/06/20 10:39:23;;;;;;;5.68;3.40;;;;;;;33.49;27.13;98941.53;4315884;33;34213;-60
2022/06/20 10:42:06;;;;;;;12.20;4.15;;;;;;;33.17;27.19;98931.63;4318383;33;34485;-61
2022/06/20 10:44:53;;;;;;;6.65;3.60;;;;;;;32.69;26.93;98931.19;4316608;33;34231;-64
2022/06/20 10:47:30;;;;;;;5.37;3.20;;;;;;;32.93;26.92;98931.38;4309391;33;33803;-60
2022/06/20 10:50:06;;;;;;;4.82;3.20;;;;;;;33.76;25.38;98943.03;4302489;33;33315;-63
2022/06/20 10:52:44;;;;;;;5.22;2.92;;;;;;;33.62;25.94;98940.06;4314804;33;32315;-61
2022/06/20 10:55:47;;;;;;;7.50;3.20;;;;;;;33.14;25.59;98931.38;4320818;33;32632;-62
2022/06/20 10:58:34;;;;;;;5.32;3.17;;;;;;;32.64;25.74;98935.88;4302719;33;32643;-60
2022/06/20 11:01:12;;;;;;;5.22;2.72;;;;;;;33.06;25.42;98931.94;4313297;33;32820;-62
2022/06/20 11:03:54;;;;;;;6.25;3.03;;;;;;;33.13;27.36;98925.00;4317114;33;33703;-64
2022/06/20 11:06:45;;;;;;;8.05;2.90;;;;;;;33.29;24.55;98913.84;4324958;33;34026;-63
2022/06/20 11:09:23;;;;;;;5.00;2.95;;;;;;;33.17;23.83;98912.22;4312281;33;33990;-61
2022/06/20 11:12:22;;;;;;;5.82;2.95;;;;;;;32.84;25.06;98912.84;4313069;33;32734;-61
2022/06/20 11:15:17;;;;;;;5.72;2.90;;;;;;;32.79;24.03;98915.66;4315694;33;33457;-60
2022/06/20 11:17:54;;;;;;;4.50;2.72;;;;;;;33.14;24.12;98912.78;4301218;33;33849;-64
2022/06/20 11:20:44;;;;;;;4.87;3.12;;;;;;;33.06;23.54;98910.59;4315699;33;34165;-64
2022/06/20 11:23:16;;;;;;;4.25;2.72;;;;;;;32.43;25.04;98910.16;4320192;33;35376;-63
2022/06/20 11:26:04;;;;;;;5.07;2.95;;;;;;;32.94;24.71;98905.34;4309605;33;33465;-62
2022/06/20 11:28:36;;;;;;;5.97;2.95;;;;;;;33.31;24.91;98912.44;4314365;33;32274;-62
2022/06/20 11:31:13;;;;;;;6.68;2.85;;;;;;;33.44;24.50;98919.31;4315236;33;34130;-62
2022/06/20 11:34:02;;;;;;;6.22;2.90;;;;;;;33.14;24.42;98910.03;4311129;33;33624;-61
2022/06/20 11:37:11;;;;;;;5.22;2.60;;;;;;;33.49;24.01;98904.63;4329926;33;34771;-62
2022/06/20 11:40:11;;;;;;;4.55;2.60;;;;;;;33.65;22.70;98894.28;4304885;33;34209;-61
2022/06/20 11:43:08;;;;;;;8.32;2.85;;;;;;;33.58;23.85;98894.56;4297073;33;33308;-64
2022/06/20 11:46:02;;;;;;;5.80;2.87;;;;;;;33.33;23.20;98904.69;4315673;33;34381;-63
2022/06/20 11:49:04;;;;;;;5.93;2.97;;;;;;;32.87;23.63;98906.75;4313628;33;33825;-64
2022/06/20 11:51:47;;;;;;;4.60;2.50;;;;;;;33.37;23.09;98904.94;4330083;33;34140;-61
2022/06/20 11:54:38;;;;;;;4.68;2.30;;;;;;;33.44;23.94;98907.41;4305468;33;34129;-61
2022/06/20 11:57:21;;;;;;;5.50;3.05;;;;;;;33.20;23.98;98904.47;4308738;33;34149;-64
2022/06/20 12:00:00;;;;;;;7.30;2.90;;;;;;;33.05;24.16;98906.19;4308749;33;33704;-64
2022/06/20 12:02:37;;;;;;;5.87;2.80;;;;;;;33.28;23.87;98912.19;4328421;33;33664;-65
2022/06/20 12:05:17;;;;;;;4.53;2.60;;;;;;;33.41;23.99;98897.69;4327844;33;33851;-63
2022/06/20 12:08:21;;;;;;;6.57;2.78;;;;;;;33.47;23.91;98890.19;4321199;33;34205;-61
2022/06/20 12:10:55;;;;;;;4.90;2.90;;;;;;;33.75;23.94;98888.66;4315512;33;33332;-62
2022/06/20 12:13:37;;;;;;;6.05;3.22;;;;;;;33.96;24.94;98881.84;4325539;33;34976;-62
2022/06/20 12:16:23;;;;;;;4.97;3.03;;;;;;;33.58;23.87;98895.44;4315126;33;35037;-61
2022/06/20 12:25:19;;;;;;;3.95;2.33;;;;;;;33.60;23.92;98881.25;4326745;33;34044;-63
2022/06/20 12:27:47;;;;;;;7.90;3.03;;;;;;;33.36;23.94;98881.94;4315452;33;32917;-63
2022/06/20 12:30:16;;;;;;;4.45;2.60;;;;;;;33.52;23.18;98877.16;4315665;33;35246;-63
2022/06/20 12:32:46;;;;;;;4.50;2.78;;;;;;;33.57;23.17;98868.78;4322229;33;33242;-61
2022/06/20 12:35:31;;;;;;;5.95;2.90;;;;;;;33.31;23.21;98864.47;4309087;33;32344;-64
2022/06/20 12:38:12;;;;;;;4.10;2.60;;;;;;;33.15;23.44;98870.09;4302179;33;33758;-60
2022/06/20 12:40:54;;;;;;;5.15;2.58;;;;;;;33.16;23.07;98862.59;4312658;33;33729;-63
2022/06/20 12:43:47;;;;;;;5.00;2.72;;;;;;;33.36;23.85;98856.16;4311513;33;33226;-59
2022/06/20 12:46:37;;;;;;;5.45;2.33;;;;;;;33.55;22.96;98850.78;4307409;33;32306;-62
2022/06/20 12:49:14;;;;;;;4.68;2.90;;;;;;;33.30;22.64;98854.50;4308956;33;32590;-60
2022/06/20 12:51:49;;;;;;;6.28;3.00;;;;;;;33.36;22.37;98853.38;4303839;33;35206;-61
2022/06/20 12:54:22;;;;;;;4.85;2.60;;;;;;;33.83;22.20;98846.41;4330435;33;33379;-61
2022/06/20 12:56:59;;;;;;;4.97;2.80;;;;;;;33.90;22.90;98843.31;4326044;33;33598;-61
2022/06/20 12:59:45;;;;;;;6.40;3.03;;;;;;;33.80;23.52;98844.22;4312028;33;33621;-62
2022/06/20 13:02:55;;;;;;;7.18;2.87;;;;;;;33.87;22.54;98847.53;4329146;33;34304;-61
2022/06/20 13:05:38;;;;;;;5.75;2.65;;;;;;;33.50;22.99;98850.81;4315445;33;33627;-61
2022/06/20 13:08:09;;;;;;;8.37;2.60;;;;;;;33.55;22.56;98853.56;4308077;33;33947;-64
2022/06/20 13:10:46;;;;;;;4.35;2.67;;;;;;;33.50;22.86;98848.88;4311219;33;33417;-61